Time;durP1;ratioP1;P1;durP2;ratioP2;P2;SDS_P1;SDS_P2;PMS_P1;PMS_P2;Temp;Humidity;BMP_temperature;BMP_pressure;BME280_temperature;BME280_humidity;BME280_pressure;Samples;Min_cycle;Max_cycle;Signal;HPM_P1;HPM_P2
2023/05/08 00:01:47;;;;;;;0.00;0.00;;;;;;;7.23;100.00;101163.53;5005060;28;20211;-78
2023/05/08 00:04:12;;;;;;;0.00;0.00;;;;;;;7.22;100.00;101159.19;5010953;28;20676;-78
2023/05/08 00:06:38;;;;;;;0.00;0.00;;;;;;;7.16;100.00;101170.06;5027240;28;20184;-78
2023/05/08 00:09:03;;;;;;;0.23;0.23;;;;;;;7.08;100.00;101158.91;5012594;28;20184;-77
2023/05/08 00:11:28;;;;;;;0.77;0.30;;;;;;;7.07;100.00;101158.09;5011711;28;20288;-78
2023/05/08 00:13:54;;;;;;;2.13;2.10;;;;;;;7.18;100.00;101163.53;5012612;28;20220;-78
2023/05/08 00:16:19;;;;;;;0.00;0.00;;;;;;;7.21;100.00;101165.72;5010836;28;20279;-78
2023/05/08 00:18:45;;;;;;;0.00;0.00;;;;;;;7.21;100.00;101158.38;5009488;28;20212;-78
2023/05/08 00:21:11;;;;;;;0.57;0.57;;;;;;;7.08;100.00;101157.00;5015354;28;20200;-78
2023/05/08 00:23:36;;;;;;;0.90;0.90;;;;;;;7.17;100.00;101162.72;5011185;28;20184;-78
2023/05/08 00:26:01;;;;;;;0.00;0.00;;;;;;;7.15;100.00;101168.44;5003355;28;20188;-78
2023/05/08 00:28:27;;;;;;;0.00;0.00;;;;;;;7.26;100.00;101176.59;5010862;28;20188;-78
2023/05/08 00:30:52;;;;;;;0.57;0.57;;;;;;;7.30;100.00;101173.06;5011020;28;20180;-78
2023/05/08 00:33:18;;;;;;;0.53;0.53;;;;;;;7.34;100.00;101173.31;5012625;28;20234;-78
2023/05/08 00:35:43;;;;;;;0.47;0.47;;;;;;;7.29;100.00;101167.91;5012056;28;20244;-78
2023/05/08 00:38:09;;;;;;;0.57;0.53;;;;;;;7.32;100.00;101164.63;5012052;28;20275;-77
2023/05/08 00:40:34;;;;;;;0.20;0.20;;;;;;;7.17;100.00;101165.44;5011642;28;20647;-77
2023/05/08 00:43:00;;;;;;;0.53;0.53;;;;;;;7.09;100.00;101160.56;5011733;28;20207;-78
2023/05/08 00:45:33;;;;;;;0.40;0.40;;;;;;;7.05;100.00;101168.41;5011740;28;20311;-78
2023/05/08 00:47:58;;;;;;;0.30;0.30;;;;;;;7.05;100.00;101171.13;5011146;28;20183;-78
2023/05/08 00:50:24;;;;;;;0.00;0.00;;;;;;;7.04;100.00;101171.41;5010449;28;20185;-78
2023/05/08 00:52:50;;;;;;;0.00;0.00;;;;;;;7.00;100.00;101159.44;5011398;28;20270;-78
2023/05/08 00:55:16;;;;;;;0.13;0.13;;;;;;;6.93;100.00;101170.56;5009439;28;20259;-77
2023/05/08 00:57:41;;;;;;;0.00;0.00;;;;;;;6.82;100.00;101166.22;5014112;28;20181;-78
2023/05/08 01:00:08;;;;;;;1.40;0.30;;;;;;;6.77;100.00;101163.47;5015287;28;20207;-76
2023/05/08 01:02:34;;;;;;;0.00;0.00;;;;;;;6.77;100.00;101158.84;5014241;28;20214;-77
2023/05/08 01:05:00;;;;;;;0.00;0.00;;;;;;;6.74;100.00;101158.59;5029389;28;20231;-77
2023/05/08 01:07:26;;;;;;;0.10;0.10;;;;;;;6.72;100.00;101160.75;5012583;28;20193;-77
2023/05/08 01:09:51;;;;;;;0.00;0.00;;;;;;;6.81;100.00;101165.41;5013959;28;20184;-77
2023/05/08 01:12:50;;;;;;;0.00;0.00;;;;;;;6.94;100.00;101168.66;5014059;28;20606;-77
2023/05/08 01:15:28;;;;;;;0.20;0.20;;;;;;;6.81;100.00;101161.88;4976635;28;20317;-77
2023/05/08 01:18:32;;;;;;;0.43;0.43;;;;;;;6.74;100.00;101162.13;5013812;28;20192;-77
2023/05/08 01:21:17;;;;;;;0.00;0.00;;;;;;;6.81;100.00;101157.25;5013388;28;20299;-76
2023/05/08 01:23:55;;;;;;;0.00;0.00;;;;;;;6.80;100.00;101161.06;5020484;28;20184;-77
2023/05/08 01:26:48;;;;;;;0.00;0.00;;;;;;;6.84;100.00;101155.91;5028174;28;20191;-77
2023/05/08 01:29:43;;;;;;;1.33;1.07;;;;;;;6.91;100.00;101164.59;5011744;28;20185;-77
2023/05/08 01:32:11;;;;;;;2.53;2.27;;;;;;;6.75;100.00;101154.78;5013147;28;20262;-77
2023/05/08 01:34:53;;;;;;;0.30;0.30;;;;;;;6.76;100.00;101157.22;5013051;28;20191;-77
2023/05/08 01:37:31;;;;;;;0.63;0.63;;;;;;;6.70;100.00;101158.31;5013230;28;20188;-77
2023/05/08 01:40:06;;;;;;;0.20;0.10;;;;;;;6.70;100.00;101157.50;5011955;28;20199;-77
2023/05/08 01:42:46;;;;;;;0.10;0.10;;;;;;;6.65;100.00;101155.56;5011674;28;20775;-77
2023/05/08 01:45:29;;;;;;;0.50;0.50;;;;;;;6.47;100.00;101147.91;5027900;28;20184;-77
2023/05/08 01:48:09;;;;;;;0.00;0.00;;;;;;;6.43;100.00;101155.78;5013115;28;20230;-77
2023/05/08 01:50:43;;;;;;;0.00;0.00;;;;;;;6.50;100.00;101158.22;5012895;28;20184;-77
2023/05/08 01:53:50;;;;;;;0.00;0.00;;;;;;;6.61;100.00;101162.63;5011762;28;20196;-77
2023/05/08 01:56:21;;;;;;;0.00;0.00;;;;;;;6.57;100.00;101159.63;4989472;28;20235;-77
2023/05/08 01:58:47;;;;;;;0.00;0.00;;;;;;;6.57;100.00;101158.81;5012930;28;20207;-77
2023/05/08 02:01:14;;;;;;;0.00;0.00;;;;;;;6.56;100.00;101165.31;5012887;28;20473;-77
2023/05/08 02:03:41;;;;;;;1.13;1.13;;;;;;;6.50;100.00;101164.47;5027927;28;20603;-77
2023/05/08 02:06:11;;;;;;;0.10;0.10;;;;;;;6.52;100.00;101161.53;5027485;28;20180;-77
2023/05/08 02:08:36;;;;;;;0.53;0.53;;;;;;;6.52;100.00;101166.94;5010417;28;20275;-76
2023/05/08 02:11:04;;;;;;;0.20;0.20;;;;;;;6.46;100.00;101157.97;5012415;28;20228;-77
2023/05/08 02:13:32;;;;;;;0.00;0.00;;;;;;;6.51;100.00;101163.41;5012541;28;20267;-77
2023/05/08 02:15:59;;;;;;;0.20;0.20;;;;;;;6.66;100.00;101169.97;5027159;28;20212;-77
2023/05/08 02:18:27;;;;;;;0.00;0.00;;;;;;;6.57;100.00;101161.53;5012500;28;20271;-77
2023/05/08 02:20:55;;;;;;;0.00;0.00;;;;;;;6.63;100.00;101165.06;5012392;28;20665;-77
2023/05/08 02:23:22;;;;;;;0.00;0.00;;;;;;;6.67;100.00;101153.41;5012970;28;20212;-77
2023/05/08 02:25:49;;;;;;;0.00;0.00;;;;;;;6.67;100.00;101158.84;5011987;28;20189;-77
2023/05/08 02:28:16;;;;;;;0.10;0.10;;;;;;;6.72;100.00;101171.63;5013453;28;20189;-77
2023/05/08 02:30:43;;;;;;;0.00;0.00;;;;;;;6.72;100.00;101167.00;5013356;28;20559;-77
2023/05/08 02:33:10;;;;;;;0.00;0.00;;;;;;;6.62;100.00;101163.44;5012676;28;20192;-77
2023/05/08 02:35:37;;;;;;;0.40;0.37;;;;;;;6.60;100.00;101162.88;5011795;28;20205;-77
2023/05/08 02:38:09;;;;;;;0.00;0.00;;;;;;;6.50;100.00;101155.53;5012088;28;20267;-77
2023/05/08 02:40:38;;;;;;;0.00;0.00;;;;;;;6.46;100.00;101162.56;5012049;28;20211;-77
2023/05/08 02:43:04;;;;;;;0.83;0.83;;;;;;;6.58;100.00;101165.88;5012090;28;20677;-77
2023/05/08 02:45:35;;;;;;;0.00;0.00;;;;;;;6.48;100.00;101165.84;5010186;28;20185;-77
2023/05/08 02:48:29;;;;;;;0.00;0.00;;;;;;;6.40;100.00;101160.94;5012563;28;20180;-77
2023/05/08 02:51:04;;;;;;;0.00;0.00;;;;;;;6.34;100.00;101160.06;5012016;28;20188;-77
2023/05/08 02:53:44;;;;;;;0.00;0.00;;;;;;;6.24;100.00;101170.91;5010680;28;20695;-77
2023/05/08 02:56:15;;;;;;;0.00;0.00;;;;;;;6.12;100.00;101162.16;5009744;28;20714;-77
2023/05/08 02:58:52;;;;;;;0.10;0.07;;;;;;;6.07;100.00;101156.69;5010629;28;20639;-77
2023/05/08 03:01:26;;;;;;;0.20;0.20;;;;;;;5.99;100.00;101158.03;5010405;28;20239;-77
2023/05/08 03:04:03;;;;;;;0.00;0.00;;;;;;;5.94;100.00;101158.00;5027052;28;20238;-77
2023/05/08 03:06:34;;;;;;;0.00;0.00;;;;;;;5.92;100.00;101158.25;5009983;28;20678;-76
2023/05/08 03:09:01;;;;;;;0.00;0.00;;;;;;;5.88;100.00;101145.47;5010395;28;20191;-77
2023/05/08 03:11:41;;;;;;;0.40;0.40;;;;;;;5.77;100.00;101144.56;5009742;28;20200;-77
2023/05/08 03:14:12;;;;;;;0.80;0.80;;;;;;;5.75;100.00;101151.34;5009838;28;20188;-76
2023/05/08 03:16:40;;;;;;;0.47;0.47;;;;;;;5.64;100.00;101147.75;5009664;28;20274;-77
2023/05/08 03:19:09;;;;;;;0.33;0.33;;;;;;;5.57;100.00;101152.59;5011281;28;20547;-77
2023/05/08 03:21:36;;;;;;;0.03;0.03;;;;;;;5.63;100.00;101156.94;5026254;28;20216;-77
2023/05/08 03:24:04;;;;;;;0.00;0.00;;;;;;;5.67;100.00;101167.03;5011361;28;20693;-77
2023/05/08 03:26:29;;;;;;;0.00;0.00;;;;;;;5.64;100.00;101159.44;4994590;28;20180;-77
2023/05/08 03:28:56;;;;;;;0.00;0.00;;;;;;;5.65;100.00;101155.63;5011467;28;20666;-77
2023/05/08 03:31:23;;;;;;;0.00;0.00;;;;;;;5.64;100.00;101151.28;5026172;28;20220;-77
2023/05/08 03:33:54;;;;;;;1.20;1.20;;;;;;;5.51;100.00;101149.03;5026538;28;20235;-77
2023/05/08 03:36:21;;;;;;;0.27;0.27;;;;;;;5.55;100.00;101147.44;5010443;28;20196;-77
2023/05/08 03:38:47;;;;;;;0.20;0.20;;;;;;;5.47;100.00;101147.91;5009967;28;20184;-77
2023/05/08 03:41:13;;;;;;;0.50;0.50;;;;;;;5.50;100.00;101141.16;5010986;28;20208;-77
2023/05/08 03:43:39;;;;;;;0.50;0.30;;;;;;;5.46;100.00;101138.13;5011042;28;20567;-77
2023/05/08 03:46:05;;;;;;;0.70;0.40;;;;;;;5.51;100.00;101140.91;5010765;28;20530;-77
2023/05/08 03:48:34;;;;;;;1.80;0.87;;;;;;;5.38;100.00;101133.22;5009724;28;20238;-76
2023/05/08 03:51:04;;;;;;;0.10;0.10;;;;;;;5.43;100.00;101148.69;5026134;28;20204;-77
2023/05/08 03:53:31;;;;;;;0.00;0.00;;;;;;;5.34;100.00;101142.91;5009722;28;20536;-76
2023/05/08 03:55:58;;;;;;;0.00;0.00;;;;;;;5.38;100.00;101136.75;5010542;28;20212;-77
2023/05/08 03:58:48;;;;;;;0.47;0.40;;;;;;;5.41;100.00;101142.72;5009615;28;20192;-77
2023/05/08 04:01:27;;;;;;;0.00;0.00;;;;;;;5.36;100.00;101141.59;5010706;28;20232;-77
2023/05/08 04:04:00;;;;;;;0.00;0.00;;;;;;;5.40;100.00;101143.78;5011310;28;20180;-77
2023/05/08 04:06:36;;;;;;;0.00;0.00;;;;;;;5.44;100.00;101147.59;5010488;28;20181;-77
2023/05/08 04:09:12;;;;;;;0.00;0.00;;;;;;;5.42;100.00;101152.47;5010954;28;20184;-77
2023/05/08 04:11:46;;;;;;;1.70;1.60;;;;;;;5.45;100.00;101147.34;5010492;28;20208;-76
2023/05/08 04:14:15;;;;;;;0.53;0.53;;;;;;;5.47;100.00;101142.47;5010598;28;20238;-77
2023/05/08 04:16:50;;;;;;;0.00;0.00;;;;;;;5.48;100.00;101146.00;5009218;28;20243;-77
2023/05/08 04:19:24;;;;;;;0.00;0.00;;;;;;;5.54;100.00;101150.41;5010840;28;20283;-77
2023/05/08 04:21:54;;;;;;;0.50;0.50;;;;;;;5.63;100.00;101151.53;5009466;28;20649;-77
2023/05/08 04:24:22;;;;;;;0.33;0.33;;;;;;;5.78;100.00;101150.81;5010480;28;20184;-77
2023/05/08 04:26:47;;;;;;;0.00;0.00;;;;;;;5.87;100.00;101150.06;5010568;28;20725;-77
2023/05/08 04:29:13;;;;;;;0.87;0.87;;;;;;;5.92;100.00;101152.00;5010711;28;20212;-76
2023/05/08 04:31:39;;;;;;;0.00;0.00;;;;;;;6.00;100.00;101154.22;5012470;28;20634;-77
2023/05/08 04:34:07;;;;;;;0.33;0.33;;;;;;;6.00;100.00;101151.53;5014417;28;20268;-77
2023/05/08 04:36:33;;;;;;;0.23;0.23;;;;;;;5.92;100.00;101149.28;5013879;28;20204;-77
2023/05/08 04:38:58;;;;;;;0.50;0.50;;;;;;;5.90;100.00;101157.69;5014238;28;20235;-77
2023/05/08 04:41:23;;;;;;;0.00;0.00;;;;;;;5.96;100.00;101158.56;5014450;28;20211;-77
2023/05/08 04:43:49;;;;;;;0.00;0.00;;;;;;;5.94;100.00;101166.16;5015082;28;20234;-76
2023/05/08 04:46:14;;;;;;;0.77;0.77;;;;;;;5.98;100.00;101161.81;5014345;28;20223;-76
2023/05/08 04:48:40;;;;;;;0.00;0.00;;;;;;;6.02;100.00;101175.66;5014303;28;20259;-76
2023/05/08 04:51:05;;;;;;;2.53;2.33;;;;;;;6.04;100.00;101168.09;5014104;28;20205;-76
2023/05/08 04:53:30;;;;;;;0.00;0.00;;;;;;;6.06;100.00;101174.06;5013765;28;20181;-77
2023/05/08 04:55:57;;;;;;;0.70;0.43;;;;;;;6.13;100.00;101170.03;5022532;28;20220;-76
2023/05/08 04:58:22;;;;;;;0.00;0.00;;;;;;;6.19;100.00;101173.56;5002423;28;20199;-76
2023/05/08 05:00:47;;;;;;;0.10;0.10;;;;;;;6.26;100.00;101176.88;5012987;28;20210;-77
2023/05/08 05:03:13;;;;;;;0.17;0.17;;;;;;;6.29;100.00;101178.25;5013934;28;20177;-76
2023/05/08 05:05:38;;;;;;;0.20;0.20;;;;;;;6.33;100.00;101184.78;5013229;28;20192;-77
2023/05/08 05:08:03;;;;;;;1.07;1.07;;;;;;;6.33;100.00;101188.28;5012393;28;20180;-76
2023/05/08 05:10:29;;;;;;;0.57;0.57;;;;;;;6.35;100.00;101188.03;5013681;28;20215;-77
2023/05/08 05:12:54;;;;;;;0.10;0.10;;;;;;;6.41;100.00;101185.09;5013632;28;20208;-76
2023/05/08 05:15:19;;;;;;;0.30;0.30;;;;;;;6.41;100.00;101189.69;5004074;28;20201;-77
2023/05/08 05:17:45;;;;;;;0.00;0.00;;;;;;;6.48;100.00;101182.94;5006455;28;20177;-77
2023/05/08 05:20:10;;;;;;;0.40;0.40;;;;;;;6.53;100.00;101195.72;5013694;28;20238;-77
2023/05/08 05:22:36;;;;;;;0.00;0.00;;;;;;;6.58;100.00;101190.31;5012992;28;20741;-77
2023/05/08 05:25:01;;;;;;;2.73;1.90;;;;;;;6.53;100.00;101190.28;5011724;28;20181;-77
2023/05/08 05:27:26;;;;;;;0.40;0.40;;;;;;;6.60;100.00;101187.31;5012171;28;20193;-77
2023/05/08 05:29:52;;;;;;;0.33;0.33;;;;;;;6.62;100.00;101183.25;5013378;28;20208;-77
2023/05/08 05:32:17;;;;;;;2.10;2.00;;;;;;;6.67;100.00;101186.00;5013061;28;20251;-77
2023/05/08 05:34:43;;;;;;;2.53;2.33;;;;;;;6.70;100.00;101188.19;5012777;28;20180;-77
2023/05/08 05:37:08;;;;;;;0.47;0.47;;;;;;;6.73;100.00;101175.97;5013006;28;20207;-76
2023/05/08 05:39:34;;;;;;;0.10;0.10;;;;;;;6.84;100.00;101180.34;5013102;28;20601;-76
2023/05/08 05:42:00;;;;;;;0.30;0.30;;;;;;;6.98;100.00;101188.78;5012960;28;20203;-75
2023/05/08 05:44:25;;;;;;;0.50;0.50;;;;;;;7.03;100.00;101195.03;5013088;28;20176;-77
2023/05/08 05:46:50;;;;;;;2.80;2.53;;;;;;;7.05;100.00;101192.88;5012918;28;20177;-77
2023/05/08 05:49:15;;;;;;;0.47;0.47;;;;;;;7.08;100.00;101189.59;5016239;28;20184;-76
2023/05/08 05:51:41;;;;;;;2.90;2.63;;;;;;;7.12;100.00;101193.44;5017611;28;20283;-77
2023/05/08 05:54:06;;;;;;;2.17;2.07;;;;;;;7.05;100.00;101190.16;5014576;28;20676;-77
2023/05/08 05:56:31;;;;;;;0.73;0.63;;;;;;;7.04;100.00;101196.66;5012605;28;20208;-77
2023/05/08 05:58:57;;;;;;;0.10;0.10;;;;;;;7.06;100.00;101199.09;5015231;28;20187;-76
2023/05/08 06:01:23;;;;;;;2.03;1.93;;;;;;;7.12;100.00;101198.06;5012604;28;20196;-77
2023/05/08 06:03:49;;;;;;;0.00;0.00;;;;;;;7.15;100.00;101183.91;5012794;28;20187;-77
2023/05/08 06:06:14;;;;;;;1.00;1.00;;;;;;;7.24;100.00;101182.31;5011995;28;20578;-77
2023/05/08 06:08:39;;;;;;;0.47;0.47;;;;;;;7.31;100.00;101185.56;5012594;28;20551;-77
2023/05/08 06:11:05;;;;;;;2.30;2.10;;;;;;;7.35;100.00;101194.78;5012444;28;20207;-77
2023/05/08 06:13:30;;;;;;;2.30;1.57;;;;;;;7.38;100.00;101197.00;5003605;28;20187;-80
2023/05/08 06:15:55;;;;;;;0.67;0.67;;;;;;;7.45;100.00;101199.44;5008442;28;20266;-77
2023/05/08 06:18:21;;;;;;;0.00;0.00;;;;;;;7.59;100.00;101205.13;5011373;28;20219;-77
2023/05/08 06:20:46;;;;;;;1.07;0.97;;;;;;;7.60;100.00;101202.13;5012326;28;20239;-77
2023/05/08 06:23:12;;;;;;;0.90;0.90;;;;;;;7.60;100.00;101201.31;5012249;28;20271;-77
2023/05/08 06:25:37;;;;;;;0.73;0.73;;;;;;;7.60;100.00;101204.84;5011808;28;20180;-76
2023/05/08 06:28:05;;;;;;;1.47;1.47;;;;;;;7.72;100.00;101202.69;5012278;28;20240;-77
2023/05/08 06:30:30;;;;;;;4.23;2.33;;;;;;;7.87;100.00;101206.47;5012067;28;20173;-77
2023/05/08 06:32:56;;;;;;;2.37;2.13;;;;;;;7.91;100.00;101210.25;5012084;28;20690;-77
2023/05/08 06:35:21;;;;;;;0.97;0.97;;;;;;;7.91;100.00;101213.00;5011304;28;20199;-77
2023/05/08 06:37:47;;;;;;;0.37;0.37;;;;;;;7.89;100.00;101213.25;5027238;28;20208;-77
2023/05/08 06:40:12;;;;;;;2.67;2.47;;;;;;;8.05;100.00;101222.22;5011150;28;20659;-77
2023/05/08 06:42:38;;;;;;;0.87;0.87;;;;;;;8.11;100.00;101217.59;5011947;28;20208;-77
2023/05/08 06:45:04;;;;;;;1.70;1.60;;;;;;;8.30;100.00;101218.63;5011537;28;20530;-77
2023/05/08 06:47:30;;;;;;;4.43;4.10;;;;;;;8.55;100.00;101213.13;5011834;28;20183;-77
2023/05/08 06:49:55;;;;;;;6.17;5.67;;;;;;;8.73;100.00;101205.41;5011762;28;20180;-77
2023/05/08 06:52:20;;;;;;;1.50;1.40;;;;;;;8.79;100.00;101216.00;5011847;28;20345;-77
2023/05/08 06:54:46;;;;;;;4.30;3.93;;;;;;;8.82;100.00;101211.88;5009437;28;20180;-77
2023/05/08 06:57:13;;;;;;;1.97;1.63;;;;;;;8.82;100.00;101218.16;5011741;28;20622;-77
2023/05/08 06:59:39;;;;;;;2.03;1.93;;;;;;;8.91;100.00;101215.66;5009240;28;20176;-77
2023/05/08 07:02:04;;;;;;;0.50;0.50;;;;;;;9.02;100.00;101206.34;5010026;28;20272;-77
2023/05/08 07:04:29;;;;;;;3.70;3.40;;;;;;;9.10;100.00;101210.34;5002852;28;20191;-77
2023/05/08 07:06:55;;;;;;;2.23;2.07;;;;;;;9.05;100.00;101215.84;5010923;28;20599;-77
2023/05/08 07:09:20;;;;;;;2.13;2.03;;;;;;;9.06;100.00;101209.31;5010009;28;20266;-77
2023/05/08 07:11:46;;;;;;;3.07;2.87;;;;;;;9.07;100.00;101214.47;5011365;28;20283;-76
2023/05/08 07:14:12;;;;;;;1.33;1.30;;;;;;;9.21;100.00;101211.94;5009950;28;20549;-76
2023/05/08 07:16:37;;;;;;;1.40;1.40;;;;;;;9.23;100.00;101216.00;5010962;28;20200;-77
2023/05/08 07:19:03;;;;;;;3.50;2.60;;;;;;;9.44;98.75;101211.22;5011462;28;20610;-76
2023/05/08 07:21:28;;;;;;;1.03;1.03;;;;;;;9.54;97.81;101222.03;5011215;28;20204;-77
2023/05/08 07:23:54;;;;;;;2.23;2.07;;;;;;;9.65;97.62;101216.50;5011343;28;20180;-77
2023/05/08 07:26:20;;;;;;;3.60;3.37;;;;;;;9.73;97.35;101216.72;5010843;28;20259;-76
2023/05/08 07:28:46;;;;;;;3.03;2.83;;;;;;;9.74;96.44;101214.78;5011753;28;20263;-76
2023/05/08 07:31:11;;;;;;;2.13;2.00;;;;;;;10.01;97.17;101219.72;5009932;28;20350;-77
2023/05/08 07:33:36;;;;;;;2.17;1.97;;;;;;;9.95;95.64;101213.47;5011100;28;20177;-77
2023/05/08 07:36:02;;;;;;;1.23;1.13;;;;;;;10.13;94.84;101226.44;5010667;28;20720;-77
2023/05/08 07:38:27;;;;;;;0.97;0.87;;;;;;;10.13;95.42;101223.69;5009964;28;20177;-76
2023/05/08 07:40:55;;;;;;;1.10;1.03;;;;;;;10.19;94.70;101223.63;5011195;28;20211;-77
2023/05/08 07:43:24;;;;;;;0.87;0.87;;;;;;;10.25;94.41;101217.84;5010703;28;20599;-77
2023/05/08 07:45:50;;;;;;;1.20;0.90;;;;;;;10.41;93.75;101215.75;5011521;28;20255;-77
2023/05/08 07:48:16;;;;;;;1.70;1.37;;;;;;;10.46;92.69;101215.69;5011450;28;20207;-76
2023/05/08 07:50:41;;;;;;;1.43;1.33;;;;;;;10.33;92.52;101214.47;5011038;28;20181;-77
2023/05/08 07:53:07;;;;;;;2.67;2.40;;;;;;;10.63;92.73;101218.75;5011080;28;20611;-77
2023/05/08 07:55:32;;;;;;;4.90;4.40;;;;;;;10.57;91.44;101213.66;5009148;28;20623;-77
2023/05/08 07:57:58;;;;;;;2.07;1.93;;;;;;;10.77;91.90;101220.78;5010527;28;20243;-76
2023/05/08 08:00:23;;;;;;;0.47;0.47;;;;;;;10.98;90.98;101217.47;5003447;28;20662;-77
2023/05/08 08:02:49;;;;;;;4.00;3.47;;;;;;;10.90;89.97;101209.94;5010810;28;20694;-76
2023/05/08 08:05:14;;;;;;;0.90;0.90;;;;;;;11.02;90.14;101214.97;5010321;28;20212;-77
2023/05/08 08:07:39;;;;;;;3.47;2.57;;;;;;;10.80;90.36;101212.00;5014779;28;20271;-76
2023/05/08 08:10:05;;;;;;;2.50;2.33;;;;;;;11.12;90.99;101217.53;5015438;28;20188;-76
2023/05/08 08:12:31;;;;;;;4.10;3.17;;;;;;;11.30;90.55;101222.22;5014460;28;20204;-77
2023/05/08 08:14:56;;;;;;;0.60;0.60;;;;;;;11.44;90.01;101214.06;5014227;28;20185;-76
2023/05/08 08:17:22;;;;;;;3.03;2.83;;;;;;;11.64;90.70;101221.13;5014778;28;20181;-76
2023/05/08 08:19:47;;;;;;;0.63;0.63;;;;;;;11.67;89.40;101212.31;5014651;28;20250;-77
2023/05/08 08:22:13;;;;;;;0.70;0.70;;;;;;;11.74;89.37;101215.47;5014460;28;20200;-77
2023/05/08 08:24:38;;;;;;;1.10;1.03;;;;;;;11.82;88.90;101222.22;5014660;28;20187;-77
2023/05/08 08:27:04;;;;;;;3.30;3.00;;;;;;;11.73;88.46;101216.59;5013249;28;20481;-77
2023/05/08 08:29:29;;;;;;;1.30;1.30;;;;;;;11.68;88.49;101221.31;5013298;28;20226;-77
2023/05/08 08:31:55;;;;;;;5.00;4.60;;;;;;;11.60;87.61;101215.44;5014234;28;20208;-77
2023/05/08 08:34:20;;;;;;;4.00;3.60;;;;;;;11.66;87.78;101221.63;5014140;28;20207;-77
2023/05/08 08:36:46;;;;;;;13.87;4.53;;;;;;;11.65;88.64;101219.19;5014150;28;20581;-78
2023/05/08 08:39:11;;;;;;;2.03;1.90;;;;;;;11.93;88.79;101225.59;5019683;28;20234;-79
2023/05/08 08:41:38;;;;;;;0.73;0.73;;;;;;;11.97;87.40;101204.69;5015387;28;20204;-79
2023/05/08 08:44:04;;;;;;;3.87;3.57;;;;;;;12.09;86.89;101205.84;5008704;28;20184;-78
2023/05/08 08:46:32;;;;;;;2.87;2.67;;;;;;;11.91;86.82;101207.53;5006896;28;20180;-78
2023/05/08 08:48:58;;;;;;;1.33;1.23;;;;;;;11.91;86.88;101212.19;5000813;28;20177;-77
2023/05/08 08:51:41;;;;;;;6.37;5.83;;;;;;;12.27;87.65;101215.06;5014085;28;20208;-77
2023/05/08 08:54:10;;;;;;;1.80;1.60;;;;;;;12.29;86.79;101201.88;5029516;28;20180;-76
2023/05/08 08:56:38;;;;;;;6.50;2.50;;;;;;;12.45;87.06;101205.16;4998992;28;20204;-77
2023/05/08 08:59:04;;;;;;;15.00;2.83;;;;;;;12.67;87.12;101201.66;5015448;28;20674;-82
2023/05/08 09:01:34;;;;;;;0.50;0.50;;;;;;;12.87;86.77;101201.22;5014192;28;20208;-76
2023/05/08 09:04:00;;;;;;;4.07;3.70;;;;;;;12.75;84.68;101190.00;5003253;28;20173;-82
2023/05/08 09:06:26;;;;;;;12.53;4.63;;;;;;;12.87;84.68;101195.72;5017750;28;20177;-83
2023/05/08 09:08:56;;;;;;;5.23;4.67;;;;;;;12.72;83.42;101185.09;5020710;28;20203;-82
2023/05/08 09:11:21;;;;;;;3.27;3.07;;;;;;;12.93;83.51;101189.03;5020204;28;20201;-84
2023/05/08 09:13:47;;;;;;;3.97;0.50;;;;;;;13.25;84.83;101199.00;5013526;28;20184;-81
2023/05/08 09:16:12;;;;;;;0.00;0.00;;;;;;;13.17;82.70;101180.53;5014290;28;20311;-80
2023/05/08 09:18:37;;;;;;;1.93;1.83;;;;;;;13.52;82.80;101183.56;5013386;28;20195;-82
2023/05/08 09:21:05;;;;;;;2.40;2.13;;;;;;;13.37;81.52;101173.75;5013284;28;20821;-83
2023/05/08 09:23:30;;;;;;;4.03;3.10;;;;;;;13.35;81.35;101160.34;5013908;28;20180;-77
2023/05/08 09:25:56;;;;;;;3.87;3.60;;;;;;;13.57;80.66;101159.50;5013231;28;20632;-77
2023/05/08 09:28:25;;;;;;;0.53;0.53;;;;;;;13.87;81.78;101166.13;5013146;28;20238;-77
2023/05/08 09:30:55;;;;;;;1.47;1.40;;;;;;;13.95;79.48;101145.34;5011667;28;20183;-77
2023/05/08 09:33:24;;;;;;;0.10;0.10;;;;;;;14.05;79.11;101158.81;5010817;28;20664;-76
2023/05/08 09:35:49;;;;;;;2.47;0.87;;;;;;;13.86;78.20;101150.78;5027036;28;20632;-77
2023/05/08 09:38:38;;;;;;;1.10;1.10;;;;;;;14.33;80.30;101162.13;5013154;28;20263;-77
2023/05/08 09:41:14;;;;;;;1.87;1.77;;;;;;;14.40;77.25;101145.16;5011502;28;20200;-77
2023/05/08 09:43:41;;;;;;;1.73;1.63;;;;;;;14.37;75.96;101143.88;5012624;28;20556;-77
2023/05/08 09:46:22;;;;;;;1.90;1.70;;;;;;;14.73;77.10;101159.31;5012410;28;20192;-77
2023/05/08 09:48:52;;;;;;;0.40;0.40;;;;;;;14.83;75.81;101154.31;5011798;28;20665;-77
2023/05/08 09:51:20;;;;;;;0.40;0.40;;;;;;;14.92;76.31;101164.53;5012342;28;20201;-77
2023/05/08 09:53:45;;;;;;;1.07;1.03;;;;;;;14.91;75.64;101158.22;5012928;28;20187;-77
2023/05/08 09:56:11;;;;;;;1.00;1.00;;;;;;;15.30;76.32;101164.69;5012158;28;20212;-77
2023/05/08 09:58:39;;;;;;;1.87;1.77;;;;;;;15.24;74.08;101150.28;5012718;28;20231;-77
2023/05/08 10:01:04;;;;;;;1.17;1.10;;;;;;;15.46;74.44;101152.81;5012428;28;20198;-77
2023/05/08 10:03:49;;;;;;;1.17;1.07;;;;;;;15.70;73.53;101140.50;5012476;28;20231;-77
2023/05/08 10:06:15;;;;;;;2.27;2.07;;;;;;;15.68;72.44;101129.81;5011734;28;20266;-77
2023/05/08 10:08:40;;;;;;;1.27;1.23;;;;;;;15.85;71.74;101131.69;5012514;28;20247;-77
2023/05/08 10:11:20;;;;;;;0.83;0.83;;;;;;;15.86;71.26;101129.75;5012546;28;20295;-77
2023/05/08 10:13:45;;;;;;;0.67;0.67;;;;;;;15.82;69.52;101126.84;5011368;28;20187;-77
2023/05/08 10:16:16;;;;;;;1.77;1.67;;;;;;;15.63;70.82;101121.72;5011949;28;20203;-77
2023/05/08 10:18:49;;;;;;;2.73;2.53;;;;;;;15.44;70.10;101111.03;5027665;28;20663;-77
2023/05/08 10:21:16;;;;;;;0.67;0.67;;;;;;;15.63;71.68;101129.19;5027511;28;20836;-77
2023/05/08 10:23:42;;;;;;;1.13;1.03;;;;;;;15.90;70.60;101114.16;5012375;28;20176;-77
2023/05/08 10:26:13;;;;;;;0.90;0.90;;;;;;;15.80;70.26;101112.59;5011832;28;20187;-77
2023/05/08 10:28:56;;;;;;;0.30;0.30;;;;;;;15.82;70.94;101121.34;5011458;28;20195;-77
2023/05/08 10:31:25;;;;;;;2.40;2.20;;;;;;;15.76;69.75;101115.19;5011978;28;20717;-77
2023/05/08 10:33:54;;;;;;;2.07;1.87;;;;;;;16.12;70.78;101124.13;5012187;28;20173;-77
2023/05/08 10:36:22;;;;;;;1.73;1.47;;;;;;;16.12;70.37;101118.59;5010200;28;20200;-77
2023/05/08 10:38:49;;;;;;;2.23;2.10;;;;;;;15.71;69.76;101101.59;5011585;28;20267;-77
2023/05/08 10:41:14;;;;;;;1.07;1.07;;;;;;;15.67;70.30;101110.84;5011832;28;20207;-78
2023/05/08 10:43:43;;;;;;;2.17;1.33;;;;;;;15.80;70.47;101109.84;5011852;28;20791;-77
2023/05/08 10:46:38;;;;;;;0.77;0.77;;;;;;;16.22;71.42;101119.06;5011141;28;20229;-77
2023/05/08 10:49:15;;;;;;;3.00;2.53;;;;;;;15.68;69.54;101105.00;5011737;28;20191;-77
2023/05/08 10:51:54;;;;;;;6.30;3.30;;;;;;;16.26;72.16;101130.22;5011625;28;20192;-77
2023/05/08 10:54:46;;;;;;;1.33;1.33;;;;;;;16.64;69.84;101116.34;5011680;28;20460;-77
2023/05/08 10:57:12;;;;;;;3.10;2.20;;;;;;;16.51;68.61;101104.44;5011569;28;20216;-78
2023/05/08 10:59:37;;;;;;;0.50;0.50;;;;;;;16.76;68.40;101102.63;5010560;28;20241;-78
2023/05/08 11:02:07;;;;;;;0.93;0.93;;;;;;;16.86;68.73;101115.22;5010682;28;20239;-78
2023/05/08 11:04:33;;;;;;;1.33;1.23;;;;;;;16.50;67.51;101097.31;5012106;28;20184;-78
2023/05/08 11:06:59;;;;;;;0.80;0.80;;;;;;;16.50;66.95;101090.97;5011817;28;20195;-78
2023/05/08 11:09:29;;;;;;;3.40;3.17;;;;;;;15.94;67.26;101095.84;5011964;28;20259;-78
2023/05/08 11:12:08;;;;;;;7.30;4.77;;;;;;;16.04;68.26;101111.97;5026618;28;20204;-77
2023/05/08 11:14:36;;;;;;;0.53;0.53;;;;;;;16.36;70.28;101127.88;5008822;28;20197;-77
2023/05/08 11:17:03;;;;;;;2.27;1.97;;;;;;;16.23;67.87;101108.81;5006247;28;20204;-77
2023/05/08 11:19:29;;;;;;;1.17;1.07;;;;;;;16.61;67.46;101092.97;5011595;28;20250;-77
2023/05/08 11:22:09;;;;;;;0.20;0.20;;;;;;;17.03;67.90;101086.66;5011510;28;20690;-77
2023/05/08 11:24:36;;;;;;;2.53;2.43;;;;;;;16.65;66.71;101082.09;5011472;28;20188;-77
2023/05/08 11:27:01;;;;;;;0.60;0.60;;;;;;;16.74;67.32;101082.03;5011358;28;20184;-77
2023/05/08 11:29:27;;;;;;;4.80;4.40;;;;;;;16.76;67.35;101079.75;5011757;28;20185;-77
2023/05/08 11:31:52;;;;;;;4.03;3.73;;;;;;;16.32;66.99;101073.72;5011087;28;20716;-77